createdAt,value
2023-05-14T00:00:44.212Z,21.85
2023-05-14T00:03:31.598Z,25.00
2023-05-14T00:06:20.036Z,22.20
2023-05-14T00:09:07.286Z,24.77
2023-05-14T00:11:54.474Z,23.85
2023-05-14T00:14:41.701Z,22.67
2023-05-14T00:17:28.965Z,20.20
2023-05-14T00:20:16.232Z,22.95
2023-05-14T00:23:04.604Z,22.23
2023-05-14T00:25:51.745Z,21.85
2023-05-14T00:28:39.045Z,24.85
2023-05-14T00:31:26.286Z,25.35
2023-05-14T00:34:13.848Z,20.00
2023-05-14T00:37:01.231Z,23.95
2023-05-14T00:39:49.865Z,22.70
2023-05-14T00:42:36.980Z,22.42
2023-05-14T00:45:24.481Z,21.73
2023-05-14T00:48:11.722Z,24.05
2023-05-14T00:50:59.194Z,22.25
2023-05-14T00:53:47.898Z,23.52
2023-05-14T00:56:36.636Z,23.70
2023-05-14T00:59:23.637Z,26.50
2023-05-14T01:02:10.896Z,23.02
2023-05-14T01:04:59.365Z,24.05
2023-05-14T01:07:56.357Z,25.23
2023-05-14T01:10:52.276Z,25.48
2023-05-14T01:13:50.916Z,25.75
2023-05-14T01:16:39.788Z,26.33
2023-05-14T01:19:35.092Z,26.08
2023-05-14T01:22:24.330Z,29.48
2023-05-14T01:25:11.710Z,24.27
2023-05-14T01:28:05.319Z,27.88
2023-05-14T01:30:59.210Z,25.85
2023-05-14T01:33:48.714Z,28.48
2023-05-14T01:36:37.144Z,26.35
2023-05-14T01:39:28.137Z,25.05
2023-05-14T01:42:15.470Z,26.05
2023-05-14T01:45:02.921Z,23.40
2023-05-14T01:47:50.046Z,24.27
2023-05-14T01:50:37.701Z,23.95
2023-05-14T01:53:24.759Z,22.50
2023-05-14T01:56:13.689Z,23.58
2023-05-14T01:59:01.037Z,24.13
2023-05-14T02:01:48.175Z,23.30
2023-05-14T02:04:35.292Z,26.05
2023-05-14T02:07:22.774Z,19.88
2023-05-14T02:10:10.810Z,25.67
2023-05-14T02:12:59.026Z,26.20
2023-05-14T02:15:46.329Z,26.40
2023-05-14T02:18:33.358Z,29.10
2023-05-14T02:21:21.208Z,27.55
2023-05-14T02:24:08.521Z,28.77
2023-05-14T02:26:55.678Z,28.85
2023-05-14T02:29:45.138Z,27.38
2023-05-14T02:32:32.480Z,28.40
2023-05-14T02:35:20.216Z,29.00
2023-05-14T02:38:07.502Z,28.80
2023-05-14T02:40:54.497Z,31.98
2023-05-14T02:43:41.445Z,29.85
2023-05-14T02:46:30.108Z,35.35
2023-05-14T02:49:17.636Z,31.95
2023-05-14T02:52:04.844Z,34.00
2023-05-14T02:54:52.173Z,32.03
2023-05-14T02:57:40.411Z,33.13
2023-05-14T03:00:27.889Z,31.15
2023-05-14T03:03:17.072Z,34.67
2023-05-14T03:06:04.707Z,33.55
2023-05-14T03:08:51.999Z,36.58
2023-05-14T03:11:39.276Z,34.92
2023-05-14T03:14:26.498Z,31.55
2023-05-14T03:17:13.845Z,30.77
2023-05-14T03:20:02.487Z,31.45
2023-05-14T03:22:49.434Z,32.15
2023-05-14T03:25:36.173Z,30.50
2023-05-14T03:28:23.164Z,31.10
2023-05-14T03:31:10.165Z,27.35
2023-05-14T03:33:57.545Z,32.08
2023-05-14T03:36:45.957Z,29.23
2023-05-14T03:39:32.816Z,31.02
2023-05-14T03:42:19.932Z,31.27
2023-05-14T03:45:09.974Z,32.78
2023-05-14T03:47:57.040Z,34.70
2023-05-14T03:50:44.592Z,34.05
2023-05-14T03:53:33.211Z,32.72
2023-05-14T03:56:20.008Z,32.92
2023-05-14T03:59:06.980Z,34.15
2023-05-14T04:01:54.213Z,36.17
2023-05-14T04:04:42.364Z,32.75
2023-05-14T04:07:29.017Z,38.60
2023-05-14T04:10:17.898Z,34.05
2023-05-14T04:13:05.102Z,31.85
2023-05-14T04:15:55.483Z,31.55
2023-05-14T04:18:42.651Z,33.88
2023-05-14T04:21:29.792Z,33.15
2023-05-14T04:24:18.120Z,29.98
2023-05-14T04:27:07.287Z,32.85
2023-05-14T04:29:54.318Z,33.13
2023-05-14T04:32:41.864Z,35.35
2023-05-14T04:35:29.264Z,35.47
2023-05-14T04:38:16.621Z,31.95
2023-05-14T04:41:03.620Z,32.25
2023-05-14T04:43:52.280Z,36.15
2023-05-14T04:46:39.573Z,35.58
2023-05-14T04:49:26.530Z,36.83
2023-05-14T04:52:13.927Z,32.83
2023-05-14T04:55:01.225Z,34.65
2023-05-14T04:57:48.318Z,34.40
2023-05-14T05:00:37.570Z,34.45
2023-05-14T05:03:24.944Z,34.17
2023-05-14T05:06:12.847Z,41.30
2023-05-14T05:09:01.957Z,38.17
2023-05-14T05:11:49.259Z,36.80
2023-05-14T05:14:36.223Z,39.17
2023-05-14T05:17:25.020Z,35.85
2023-05-14T05:20:13.648Z,41.28
2023-05-14T05:23:00.926Z,41.30
2023-05-14T05:25:47.979Z,40.10
2023-05-14T05:28:34.906Z,39.25
2023-05-14T05:31:22.185Z,38.85
2023-05-14T05:34:10.738Z,43.17
2023-05-14T05:36:57.996Z,37.97
2023-05-14T05:39:44.952Z,39.45
2023-05-14T05:42:31.937Z,43.15
2023-05-14T05:45:18.822Z,47.08
2023-05-14T05:48:06.323Z,39.70
2023-05-14T05:50:54.593Z,43.70
2023-05-14T05:53:41.985Z,42.85
2023-05-14T05:56:29.253Z,34.70
2023-05-14T05:59:16.534Z,35.47
2023-05-14T06:02:03.785Z,36.47
2023-05-14T06:04:51.145Z,43.95
2023-05-14T06:07:39.989Z,40.05
2023-05-14T06:10:27.031Z,39.28
2023-05-14T06:13:14.280Z,38.42
2023-05-14T06:16:01.509Z,34.60
2023-05-14T06:18:48.684Z,33.47
2023-05-14T06:21:35.814Z,33.95
2023-05-14T06:24:24.470Z,34.13
2023-05-14T06:27:12.368Z,31.30
2023-05-14T06:29:59.374Z,33.15
2023-05-14T06:32:46.428Z,36.30
2023-05-14T06:35:34.936Z,34.17
2023-05-14T06:38:21.683Z,37.95
2023-05-14T06:41:10.058Z,33.92
2023-05-14T06:43:57.910Z,37.97
2023-05-14T06:46:44.714Z,31.73
2023-05-14T06:49:31.945Z,37.97
2023-05-14T06:52:19.184Z,31.70
2023-05-14T06:55:06.967Z,31.60
2023-05-14T06:57:55.217Z,27.67
2023-05-14T07:00:42.590Z,28.27
2023-05-14T07:03:29.882Z,28.60
2023-05-14T07:06:17.417Z,27.45
2023-05-14T07:09:04.462Z,32.78
2023-05-14T07:11:51.713Z,35.15
2023-05-14T07:14:40.506Z,27.95
2023-05-14T07:17:27.841Z,28.38
2023-05-14T07:20:14.930Z,24.65
2023-05-14T07:23:01.845Z,27.50
2023-05-14T07:25:49.269Z,28.40
2023-05-14T07:28:36.564Z,27.20
2023-05-14T07:31:25.371Z,23.98
2023-05-14T07:34:12.872Z,27.52
2023-05-14T07:37:00.212Z,25.75
2023-05-14T07:39:47.566Z,24.88
2023-05-14T07:42:37.058Z,25.02
2023-05-14T07:45:25.194Z,27.88
2023-05-14T07:48:13.943Z,23.80
2023-05-14T07:51:01.745Z,27.10
2023-05-14T07:53:48.955Z,24.75
2023-05-14T07:56:36.315Z,23.33
2023-05-14T07:59:23.207Z,22.67
2023-05-14T08:02:13.114Z,27.00
2023-05-14T08:05:01.669Z,23.50
2023-05-14T08:07:48.600Z,31.98
2023-05-14T08:10:35.684Z,36.97
2023-05-14T08:13:23.257Z,28.42
2023-05-14T08:16:10.348Z,20.38
2023-05-14T08:19:03.523Z,21.50
2023-05-14T08:21:52.657Z,19.55
2023-05-14T08:24:40.613Z,21.67
2023-05-14T08:27:27.642Z,25.85
2023-05-14T08:30:15.409Z,25.80
2023-05-14T08:33:02.420Z,23.30
2023-05-14T08:35:49.314Z,29.10
2023-05-14T08:38:37.770Z,22.98
2023-05-14T08:41:25.228Z,23.75
2023-05-14T08:44:15.546Z,25.67
2023-05-14T08:47:03.218Z,26.23
2023-05-14T08:49:56.097Z,23.55
2023-05-14T08:52:43.249Z,28.55
2023-05-14T08:55:33.498Z,24.40
2023-05-14T08:58:20.860Z,23.83
2023-05-14T09:01:07.987Z,24.40
2023-05-14T09:03:55.852Z,20.20
2023-05-14T09:06:44.354Z,22.63
2023-05-14T09:09:32.184Z,22.55
2023-05-14T09:12:20.713Z,23.10
2023-05-14T09:15:08.773Z,22.27
2023-05-14T09:17:56.027Z,21.50
2023-05-14T09:20:43.462Z,22.25
2023-05-14T09:23:34.773Z,20.92
2023-05-14T09:26:26.581Z,22.10
2023-05-14T09:29:15.806Z,19.58
2023-05-14T09:32:05.824Z,20.60
2023-05-14T09:34:53.317Z,24.33
2023-05-14T09:37:44.053Z,24.25
2023-05-14T09:40:31.259Z,20.90
2023-05-14T09:43:18.518Z,19.15
2023-05-14T09:46:07.199Z,19.83
2023-05-14T09:48:54.393Z,20.50
2023-05-14T09:51:41.914Z,15.63
2023-05-14T09:54:30.085Z,18.60
2023-05-14T09:57:17.114Z,21.25
2023-05-14T10:00:04.284Z,18.48
2023-05-14T10:02:55.097Z,16.88
2023-05-14T10:05:43.280Z,17.88
2023-05-14T10:08:35.994Z,17.95
2023-05-14T10:11:26.868Z,15.80
2023-05-14T10:14:18.804Z,13.85
2023-05-14T10:17:18.308Z,12.40
2023-05-14T10:20:09.521Z,12.90
2023-05-14T10:22:57.495Z,12.38
2023-05-14T10:25:45.308Z,12.85
2023-05-14T10:28:33.624Z,14.13
2023-05-14T10:31:24.851Z,10.70
2023-05-14T10:34:33.563Z,13.13
2023-05-14T10:37:24.055Z,14.32
2023-05-14T10:40:11.719Z,14.60
2023-05-14T10:43:01.594Z,16.45
2023-05-14T10:45:49.016Z,14.48
2023-05-14T10:48:38.019Z,15.55
2023-05-14T10:51:25.959Z,15.15
2023-05-14T10:54:14.370Z,16.60
2023-05-14T10:57:01.907Z,14.65
2023-05-14T10:59:55.195Z,12.80
2023-05-14T11:02:44.324Z,12.95
2023-05-14T11:05:31.558Z,12.63
2023-05-14T11:08:19.369Z,13.15
2023-05-14T11:11:08.941Z,12.10
2023-05-14T11:13:57.595Z,11.85
2023-05-14T11:16:45.248Z,12.02
2023-05-14T11:19:32.390Z,10.82
2023-05-14T11:22:19.443Z,12.27
2023-05-14T11:25:07.792Z,11.50
2023-05-14T11:27:58.924Z,13.63
2023-05-14T11:30:47.230Z,12.02
2023-05-14T11:33:43.106Z,14.32
2023-05-14T11:36:30.136Z,12.35
2023-05-14T11:39:20.112Z,11.45
2023-05-14T11:42:14.655Z,11.88
2023-05-14T11:45:03.381Z,11.10
2023-05-14T11:47:50.464Z,11.20
2023-05-14T11:50:37.891Z,11.02
2023-05-14T11:53:28.493Z,11.52
2023-05-14T11:56:16.183Z,10.98
2023-05-14T11:59:03.909Z,10.07
2023-05-14T12:01:53.635Z,9.13
2023-05-14T12:04:41.969Z,10.95
2023-05-14T12:07:31.402Z,9.20
2023-05-14T12:10:18.757Z,9.95
2023-05-14T12:13:08.672Z,10.80
2023-05-14T12:15:57.906Z,8.52
2023-05-14T12:18:46.478Z,9.68
2023-05-14T12:21:33.948Z,8.50
2023-05-14T12:24:21.640Z,14.27
2023-05-14T12:27:10.833Z,7.93
2023-05-14T12:30:19.245Z,7.90
2023-05-14T12:33:08.363Z,8.52
2023-05-14T12:36:10.025Z,7.63
2023-05-14T12:39:07.391Z,7.25
2023-05-14T12:41:54.734Z,8.05
2023-05-14T12:44:41.535Z,9.70
2023-05-14T12:47:28.892Z,8.50
2023-05-14T12:50:16.547Z,10.65
2023-05-14T12:53:05.803Z,7.85
2023-05-14T12:55:53.240Z,7.20
2023-05-14T12:58:40.708Z,7.90
2023-05-14T13:01:27.826Z,7.18
2023-05-14T13:04:14.660Z,9.73
2023-05-14T13:07:02.289Z,7.30
2023-05-14T13:09:50.907Z,7.93
2023-05-14T13:12:39.039Z,7.00
2023-05-14T13:15:26.462Z,7.47
2023-05-14T13:18:13.810Z,6.13
2023-05-14T13:21:04.543Z,8.73
2023-05-14T13:23:51.570Z,7.65
2023-05-14T13:26:40.129Z,7.45
2023-05-14T13:29:27.112Z,9.07
2023-05-14T13:32:14.547Z,6.90
2023-05-14T13:35:01.827Z,7.97
2023-05-14T13:37:49.185Z,6.03
2023-05-14T13:40:36.572Z,5.43
2023-05-14T13:43:25.158Z,5.50
2023-05-14T13:46:12.484Z,6.07
2023-05-14T13:48:59.454Z,4.85
2023-05-14T13:51:46.777Z,6.75
2023-05-14T13:54:34.321Z,5.97
2023-05-14T13:57:22.180Z,8.07
2023-05-14T14:00:12.210Z,6.10
2023-05-14T14:02:59.413Z,7.55
2023-05-14T14:05:46.599Z,5.30
2023-05-14T14:08:34.013Z,5.50
2023-05-14T14:11:21.317Z,5.28
2023-05-14T14:14:08.916Z,4.93
2023-05-14T14:16:57.760Z,5.18
2023-05-14T14:19:44.840Z,4.90
2023-05-14T14:22:32.528Z,4.95
2023-05-14T14:25:19.812Z,3.95
2023-05-14T14:28:06.840Z,6.03
2023-05-14T14:30:54.090Z,4.00
2023-05-14T14:33:43.230Z,5.00
2023-05-14T14:36:31.024Z,4.03
2023-05-14T14:39:18.260Z,4.80
2023-05-14T14:42:05.986Z,4.10
2023-05-14T14:44:53.293Z,3.63
2023-05-14T14:47:43.998Z,5.20
2023-05-14T14:50:32.870Z,3.85
2023-05-14T14:53:20.133Z,5.65
2023-05-14T14:56:07.841Z,4.85
2023-05-14T14:58:54.978Z,3.92
2023-05-14T15:01:42.073Z,6.13
2023-05-14T15:04:32.880Z,3.28
2023-05-14T15:07:22.365Z,4.38
2023-05-14T15:10:10.077Z,3.55
2023-05-14T15:12:58.829Z,4.65
2023-05-14T15:15:45.981Z,3.00
2023-05-14T15:18:33.311Z,3.72
2023-05-14T15:21:20.723Z,3.17
2023-05-14T15:24:13.686Z,3.20
2023-05-14T15:29:48.134Z,4.10
2023-05-14T15:32:35.693Z,3.95
2023-05-14T15:35:23.101Z,4.95
2023-05-14T15:38:10.849Z,4.40
2023-05-14T15:40:59.512Z,2.83
2023-05-14T15:43:46.833Z,4.50
2023-05-14T15:46:34.233Z,4.72
2023-05-14T15:49:22.052Z,3.65
2023-05-14T15:52:09.154Z,4.15
2023-05-14T15:54:58.740Z,4.95
2023-05-14T15:57:47.056Z,3.83
2023-05-14T16:00:34.509Z,4.25
2023-05-14T16:03:22.182Z,4.43
2023-05-14T16:06:09.701Z,3.33
2023-05-14T16:08:57.328Z,11.38
2023-05-14T16:11:44.246Z,4.57
2023-05-14T16:14:34.175Z,4.43
2023-05-14T16:17:21.752Z,4.00
2023-05-14T16:20:09.858Z,7.30
2023-05-14T16:22:57.161Z,5.53
2023-05-14T16:25:44.247Z,5.55
2023-05-14T16:28:31.452Z,6.53
2023-05-14T16:31:19.983Z,7.65
2023-05-14T16:34:07.436Z,5.32
2023-05-14T16:36:54.914Z,7.13
2023-05-14T16:39:42.159Z,5.63
2023-05-14T16:42:29.604Z,6.28
2023-05-14T16:45:16.932Z,5.10
2023-05-14T16:48:06.335Z,3.97
2023-05-14T16:50:54.073Z,4.32
2023-05-14T16:53:41.447Z,4.57
2023-05-14T16:56:30.577Z,4.65
2023-05-14T16:59:18.478Z,4.55
2023-05-14T17:02:06.302Z,5.18
2023-05-14T17:04:55.617Z,3.50
2023-05-14T17:07:42.819Z,2.95
2023-05-14T17:10:31.030Z,4.70
2023-05-14T17:13:18.815Z,3.15
2023-05-14T17:16:06.191Z,3.60
2023-05-14T17:18:53.332Z,3.47
2023-05-14T17:21:42.259Z,4.80
2023-05-14T17:24:29.292Z,4.40
2023-05-14T17:27:16.743Z,3.50
2023-05-14T17:30:04.562Z,3.75
2023-05-14T17:32:52.143Z,5.65
2023-05-14T17:35:39.701Z,4.13
2023-05-14T17:38:28.318Z,4.00
2023-05-14T17:41:15.935Z,6.50
2023-05-14T17:44:03.010Z,4.45
2023-05-14T17:46:50.465Z,4.07
2023-05-14T17:49:37.782Z,3.58
2023-05-14T17:52:25.188Z,3.20
2023-05-14T17:55:13.695Z,4.18
2023-05-14T17:58:00.732Z,3.35
2023-05-14T18:00:48.317Z,2.70
2023-05-14T18:03:35.363Z,4.53
2023-05-14T18:06:22.348Z,4.35
2023-05-14T18:09:09.207Z,3.60
2023-05-14T18:11:57.689Z,2.92
2023-05-14T18:14:45.738Z,2.88
2023-05-14T18:17:33.052Z,3.13
2023-05-14T18:20:20.376Z,4.25
2023-05-14T18:23:08.435Z,5.88
2023-05-14T18:25:55.530Z,3.65
2023-05-14T18:28:44.210Z,3.45
2023-05-14T18:31:31.269Z,4.10
2023-05-14T18:34:18.795Z,2.80
2023-05-14T18:37:07.223Z,4.55
2023-05-14T18:39:53.997Z,3.28
2023-05-14T18:42:41.208Z,3.13
2023-05-14T18:45:30.127Z,8.40
2023-05-14T18:48:17.503Z,4.90
2023-05-14T18:51:05.585Z,3.20
2023-05-14T18:53:52.775Z,2.85
2023-05-14T18:56:45.492Z,6.13
2023-05-14T18:59:35.096Z,5.78
2023-05-14T19:02:23.866Z,3.35
2023-05-14T19:05:11.462Z,3.25
2023-05-14T19:07:58.958Z,3.58
2023-05-14T19:10:46.223Z,3.33
2023-05-14T19:13:33.630Z,5.05
2023-05-14T19:16:21.353Z,3.95
2023-05-14T19:19:10.737Z,5.28
2023-05-14T19:21:58.002Z,3.40
2023-05-14T19:24:45.196Z,15.20
2023-05-14T19:27:32.370Z,4.85
2023-05-14T19:30:21.312Z,6.20
2023-05-14T19:33:08.805Z,4.68
2023-05-14T19:35:57.664Z,4.85
2023-05-14T19:38:44.749Z,4.30
2023-05-14T19:41:31.786Z,4.18
2023-05-14T19:44:19.174Z,3.97
2023-05-14T19:47:06.872Z,4.70
2023-05-14T19:49:54.124Z,5.03
2023-05-14T19:52:42.890Z,4.40
2023-05-14T19:55:30.071Z,4.65
2023-05-14T19:58:17.294Z,7.28
2023-05-14T20:01:04.856Z,5.65
2023-05-14T20:03:52.134Z,5.32
2023-05-14T20:06:40.419Z,6.80
2023-05-14T20:09:29.189Z,7.93
2023-05-14T20:12:16.833Z,5.70
2023-05-14T20:15:04.306Z,40.92
2023-05-14T20:17:51.679Z,6.53
2023-05-14T20:20:40.214Z,8.10
2023-05-14T20:23:27.452Z,6.93
2023-05-14T20:26:16.206Z,7.78
2023-05-14T20:29:03.316Z,8.30
2023-05-14T20:31:50.323Z,9.13
2023-05-14T20:34:37.528Z,7.45
2023-05-14T20:37:25.608Z,8.57
2023-05-14T20:40:13.936Z,7.05
2023-05-14T20:43:02.924Z,8.68
2023-05-14T20:45:50.305Z,8.80
2023-05-14T20:48:37.813Z,8.50
2023-05-14T20:51:25.050Z,9.50
2023-05-14T20:54:12.394Z,6.93
2023-05-14T20:56:59.623Z,8.95
2023-05-14T20:59:49.383Z,8.23
2023-05-14T21:02:37.507Z,7.00
2023-05-14T21:05:24.765Z,7.43
2023-05-14T21:08:12.972Z,7.30
2023-05-14T21:11:00.055Z,7.00
2023-05-14T21:13:47.286Z,7.13
2023-05-14T21:16:35.827Z,6.75
2023-05-14T21:19:23.863Z,9.98
2023-05-14T21:22:11.059Z,8.90
2023-05-14T21:24:58.317Z,10.40
2023-05-14T21:27:45.487Z,8.45
2023-05-14T21:30:32.547Z,10.68
2023-05-14T21:33:20.948Z,9.63
2023-05-14T21:36:09.053Z,8.13
2023-05-14T21:38:56.230Z,8.43
2023-05-14T21:41:43.455Z,8.27
2023-05-14T21:44:30.653Z,9.35
2023-05-14T21:47:17.498Z,8.35
2023-05-14T21:50:07.092Z,9.45
2023-05-14T21:52:54.005Z,9.82
2023-05-14T21:55:41.350Z,7.18
2023-05-14T21:58:28.662Z,8.38
2023-05-14T22:01:16.126Z,7.28
2023-05-14T22:04:03.710Z,7.13
2023-05-14T22:06:52.282Z,8.77
2023-05-14T22:09:39.713Z,8.00
2023-05-14T22:12:26.896Z,7.25
2023-05-14T22:15:14.129Z,7.05
2023-05-14T22:18:03.183Z,8.35
2023-05-14T22:20:50.638Z,8.00
2023-05-14T22:23:39.406Z,6.15
2023-05-14T22:26:26.397Z,9.32
2023-05-14T22:29:13.479Z,6.53
2023-05-14T22:32:00.653Z,9.48
2023-05-14T22:34:47.472Z,6.65
2023-05-14T22:37:34.564Z,8.98
2023-05-14T22:40:23.227Z,8.55
2023-05-14T22:43:10.397Z,8.32
2023-05-14T22:45:57.722Z,8.57
2023-05-14T22:48:44.998Z,10.02
2023-05-14T22:51:31.941Z,9.00
2023-05-14T22:54:18.836Z,12.18
2023-05-14T22:57:07.739Z,10.30
2023-05-14T22:59:54.772Z,11.45
2023-05-14T23:02:42.134Z,9.13
2023-05-14T23:05:29.901Z,10.40
2023-05-14T23:08:17.375Z,10.63
2023-05-14T23:11:04.748Z,11.60
2023-05-14T23:13:53.285Z,10.20
2023-05-14T23:16:41.050Z,9.25
2023-05-14T23:19:28.056Z,11.23
2023-05-14T23:22:14.997Z,11.65
2023-05-14T23:25:01.928Z,10.15
2023-05-14T23:27:50.135Z,10.18
2023-05-14T23:30:38.436Z,8.95
2023-05-14T23:33:25.705Z,11.25
2023-05-14T23:36:13.083Z,12.65
2023-05-14T23:39:00.944Z,9.88
2023-05-14T23:41:48.137Z,9.32
2023-05-14T23:44:35.295Z,7.60
2023-05-14T23:47:23.974Z,10.18
2023-05-14T23:50:11.137Z,7.32
2023-05-14T23:52:58.551Z,8.73
2023-05-14T23:55:45.755Z,8.30
2023-05-14T23:58:33.758Z,7.72
